createdAt,value
2022-12-04T00:01:27.793Z,19.73
2022-12-04T00:04:00.412Z,18.47
2022-12-04T00:06:28.291Z,16.60
2022-12-04T00:08:55.017Z,18.53
2022-12-04T00:11:25.028Z,15.77
2022-12-04T00:13:51.984Z,19.20
2022-12-04T00:16:21.040Z,16.57
2022-12-04T00:18:47.881Z,17.60
2022-12-04T00:21:17.141Z,24.17
2022-12-04T00:23:44.776Z,19.00
2022-12-04T00:26:20.241Z,17.60
2022-12-04T00:28:47.077Z,18.93
2022-12-04T00:31:16.839Z,18.17
2022-12-04T00:33:44.299Z,17.77
2022-12-04T00:36:14.660Z,19.07
2022-12-04T00:38:42.761Z,18.83
2022-12-04T00:41:11.627Z,16.90
2022-12-04T00:43:38.392Z,17.03
2022-12-04T00:46:05.504Z,18.87
2022-12-04T00:48:32.207Z,13.20
2022-12-04T00:51:07.164Z,18.87
2022-12-04T00:53:39.203Z,23.47
2022-12-04T00:56:08.873Z,20.23
2022-12-04T00:58:36.090Z,21.57
2022-12-04T01:01:05.048Z,18.57
2022-12-04T01:03:31.924Z,21.17
2022-12-04T01:05:58.582Z,15.57
2022-12-04T01:08:25.614Z,14.27
2022-12-04T01:10:52.474Z,18.03
2022-12-04T01:13:19.145Z,16.40
2022-12-04T01:15:47.382Z,14.47
2022-12-04T01:18:14.679Z,15.00
2022-12-04T01:20:46.374Z,14.13
2022-12-04T01:23:13.088Z,13.07
2022-12-04T01:25:39.773Z,13.20
2022-12-04T01:28:06.380Z,21.07
2022-12-04T01:30:32.930Z,14.17
2022-12-04T01:32:59.588Z,17.30
2022-12-04T01:35:26.247Z,17.17
2022-12-04T01:37:52.795Z,13.63
2022-12-04T01:40:20.093Z,17.80
2022-12-04T01:42:46.682Z,19.87
2022-12-04T01:45:37.784Z,13.73
2022-12-04T01:48:30.692Z,14.87
2022-12-04T01:51:03.495Z,15.10
2022-12-04T01:53:31.951Z,15.00
2022-12-04T01:55:59.513Z,18.03
2022-12-04T01:58:31.774Z,10.47
2022-12-04T02:01:08.002Z,13.73
2022-12-04T02:03:37.781Z,14.90
2022-12-04T02:06:05.127Z,15.40
2022-12-04T02:08:33.746Z,18.67
2022-12-04T02:11:18.796Z,12.70
2022-12-04T02:14:08.265Z,18.20
2022-12-04T02:16:46.535Z,15.00
2022-12-04T02:19:39.460Z,19.37
2022-12-04T02:22:23.091Z,18.73
2022-12-04T02:25:04.754Z,13.47
2022-12-04T02:27:57.560Z,11.80
2022-12-04T02:30:24.196Z,14.23
2022-12-04T02:32:53.452Z,18.87
2022-12-04T02:35:33.241Z,18.67
2022-12-04T02:38:17.113Z,16.70
2022-12-04T02:41:14.072Z,21.50
2022-12-04T02:43:48.576Z,17.10
2022-12-04T02:46:18.788Z,15.37
2022-12-04T02:48:49.258Z,19.30
2022-12-04T02:51:19.576Z,16.30
2022-12-04T02:53:51.554Z,13.70
2022-12-04T02:56:23.420Z,13.07
2022-12-04T02:58:55.100Z,16.30
2022-12-04T03:01:29.149Z,13.73
2022-12-04T03:04:04.882Z,20.93
2022-12-04T03:06:36.036Z,16.30
2022-12-04T03:09:20.191Z,12.43
2022-12-04T03:11:53.070Z,21.90
2022-12-04T03:14:26.119Z,17.17
2022-12-04T03:17:02.249Z,15.30
2022-12-04T03:19:39.248Z,13.53
2022-12-04T03:22:10.631Z,13.60
2022-12-04T03:24:44.610Z,19.63
2022-12-04T03:27:23.576Z,14.40
2022-12-04T03:30:02.778Z,14.70
2022-12-04T03:33:07.155Z,13.20
2022-12-04T03:35:52.743Z,13.70
2022-12-04T03:38:35.841Z,15.97
2022-12-04T03:41:11.233Z,12.30
2022-12-04T03:43:52.843Z,12.07
2022-12-04T03:46:31.649Z,16.77
2022-12-04T03:49:10.401Z,16.37
2022-12-04T03:51:43.850Z,12.63
2022-12-04T03:54:22.251Z,13.93
2022-12-04T03:56:57.211Z,11.10
2022-12-04T03:59:27.827Z,12.43
2022-12-04T04:01:58.414Z,14.17
2022-12-04T04:04:32.498Z,10.73
2022-12-04T04:07:11.733Z,14.10
2022-12-04T04:09:43.921Z,10.77
2022-12-04T04:12:15.709Z,16.10
2022-12-04T04:15:28.679Z,15.33
2022-12-04T04:18:15.935Z,13.50
2022-12-04T04:21:10.553Z,15.87
2022-12-04T04:24:02.333Z,11.33
2022-12-04T04:26:34.568Z,10.93
2022-12-04T04:29:01.611Z,11.27
2022-12-04T04:31:52.041Z,13.13
2022-12-04T04:34:25.971Z,11.27
2022-12-04T04:37:17.993Z,11.63
2022-12-04T04:39:56.315Z,12.20
2022-12-04T04:42:31.634Z,13.40
2022-12-04T04:45:23.271Z,13.07
2022-12-04T04:47:58.556Z,10.60
2022-12-04T04:50:25.579Z,11.77
2022-12-04T04:52:59.646Z,14.10
2022-12-04T04:55:27.029Z,13.53
2022-12-04T04:57:53.745Z,23.00
2022-12-04T05:00:24.332Z,17.90
2022-12-04T05:02:50.973Z,19.30
2022-12-04T05:05:18.296Z,16.53
2022-12-04T05:07:45.029Z,17.23
2022-12-04T05:10:11.758Z,15.37
2022-12-04T05:12:38.318Z,19.20
2022-12-04T05:15:05.415Z,20.23
2022-12-04T05:17:31.994Z,11.20
2022-12-04T05:19:58.823Z,16.03
2022-12-04T05:22:31.597Z,14.90
2022-12-04T05:24:58.804Z,14.13
2022-12-04T05:27:26.374Z,17.47
2022-12-04T05:29:54.639Z,14.87
2022-12-04T05:32:23.071Z,18.00
2022-12-04T05:34:51.636Z,13.57
2022-12-04T05:37:19.040Z,13.77
2022-12-04T05:39:45.999Z,12.80
2022-12-04T05:42:13.399Z,16.40
2022-12-04T05:44:40.243Z,18.67
2022-12-04T05:47:07.584Z,20.00
2022-12-04T05:49:35.286Z,19.83
2022-12-04T05:52:05.079Z,16.00
2022-12-04T05:54:32.467Z,11.80
2022-12-04T05:56:59.540Z,15.70
2022-12-04T05:59:26.096Z,14.93
2022-12-04T06:01:52.934Z,11.80
2022-12-04T06:04:19.559Z,14.87
2022-12-04T06:06:46.187Z,15.20
2022-12-04T06:09:13.156Z,15.53
2022-12-04T06:11:41.417Z,19.03
2022-12-04T06:14:11.072Z,14.37
2022-12-04T06:16:42.015Z,13.20
2022-12-04T06:19:13.376Z,14.07
2022-12-04T06:21:41.893Z,15.27
2022-12-04T06:24:14.717Z,16.57
2022-12-04T06:27:04.134Z,13.70
2022-12-04T06:29:28.101Z,14.80
2022-12-04T06:31:54.687Z,17.30
2022-12-04T06:34:21.295Z,15.00
2022-12-04T06:36:47.903Z,18.10
2022-12-04T06:39:18.691Z,13.67
2022-12-04T06:41:47.437Z,15.83
2022-12-04T06:44:15.291Z,12.00
2022-12-04T06:46:46.455Z,12.67
2022-12-04T06:49:15.299Z,12.23
2022-12-04T06:51:41.978Z,13.00
2022-12-04T06:54:10.354Z,12.20
2022-12-04T06:56:36.995Z,11.20
2022-12-04T06:59:04.576Z,10.57
2022-12-04T07:01:33.661Z,11.50
2022-12-04T07:04:03.733Z,14.53
2022-12-04T07:06:33.583Z,16.60
2022-12-04T07:09:04.620Z,14.03
2022-12-04T07:11:31.941Z,12.17
2022-12-04T07:13:58.643Z,14.33
2022-12-04T07:16:26.482Z,19.30
2022-12-04T07:18:59.026Z,16.30
2022-12-04T07:21:29.420Z,14.27
2022-12-04T07:23:59.144Z,17.57
2022-12-04T07:26:28.036Z,18.63
2022-12-04T07:28:55.601Z,15.47
2022-12-04T07:31:24.312Z,22.00
2022-12-04T07:33:51.404Z,16.97
2022-12-04T07:36:19.742Z,13.47
2022-12-04T07:38:46.736Z,18.23
2022-12-04T07:41:14.641Z,14.63
2022-12-04T07:43:42.393Z,14.30
2022-12-04T07:46:16.290Z,14.67
2022-12-04T07:48:43.797Z,15.87
2022-12-04T07:51:20.199Z,15.20
2022-12-04T07:53:47.138Z,11.97
2022-12-04T07:56:14.979Z,15.63
2022-12-04T07:58:42.668Z,19.83
2022-12-04T08:01:13.617Z,23.37
2022-12-04T08:03:47.051Z,20.17
2022-12-04T08:06:14.689Z,17.90
2022-12-04T08:08:41.235Z,17.13
2022-12-04T08:11:09.889Z,14.87
2022-12-04T08:13:36.662Z,17.13
2022-12-04T08:16:05.309Z,18.27
2022-12-04T08:18:32.097Z,17.37
2022-12-04T08:21:11.002Z,12.40
2022-12-04T08:23:38.587Z,18.70
2022-12-04T08:26:07.090Z,15.40
2022-12-04T08:28:33.894Z,15.40
2022-12-04T08:31:06.266Z,12.80
2022-12-04T08:33:33.785Z,17.40
2022-12-04T08:36:00.589Z,14.13
2022-12-04T08:38:27.203Z,17.07
2022-12-04T08:40:53.854Z,15.90
2022-12-04T08:43:20.483Z,15.03
2022-12-04T08:45:57.611Z,16.07
2022-12-04T08:48:24.773Z,16.30
2022-12-04T08:50:51.572Z,16.27
2022-12-04T08:53:18.565Z,13.33
2022-12-04T08:55:45.403Z,14.03
2022-12-04T08:58:12.380Z,16.00
2022-12-04T09:00:39.323Z,13.67
2022-12-04T09:03:06.142Z,14.50
2022-12-04T09:05:32.712Z,19.50
2022-12-04T09:07:59.286Z,20.57
2022-12-04T09:10:25.869Z,19.43
2022-12-04T09:12:52.486Z,17.90
2022-12-04T09:15:19.057Z,14.23
2022-12-04T09:17:45.677Z,20.90
2022-12-04T09:20:12.561Z,20.27
2022-12-04T09:23:02.060Z,20.40
2022-12-04T09:25:26.030Z,15.37
2022-12-04T09:27:52.547Z,13.67
2022-12-04T09:30:19.190Z,14.83
2022-12-04T09:32:45.780Z,18.17
2022-12-04T09:35:12.454Z,19.27
2022-12-04T09:37:39.212Z,13.73
2022-12-04T09:40:07.624Z,21.30
2022-12-04T09:42:47.859Z,16.20
2022-12-04T09:45:24.755Z,26.98
2022-12-04T09:47:56.636Z,17.60
2022-12-04T09:50:40.490Z,17.70
2022-12-04T09:53:15.142Z,19.83
2022-12-04T09:56:11.659Z,20.43
2022-12-04T09:58:49.491Z,17.77
2022-12-04T10:01:26.953Z,18.90
2022-12-04T10:03:54.956Z,16.20
2022-12-04T10:06:29.877Z,19.63
2022-12-04T10:08:56.374Z,19.47
2022-12-04T10:11:31.961Z,16.37
2022-12-04T10:14:10.621Z,13.07
2022-12-04T10:17:18.906Z,16.83
2022-12-04T10:20:05.411Z,15.53
2022-12-04T10:22:37.796Z,13.47
2022-12-04T10:25:16.575Z,18.43
2022-12-04T10:27:59.677Z,20.53
2022-12-04T10:30:29.493Z,22.93
2022-12-04T10:33:22.790Z,18.70
2022-12-04T10:35:54.940Z,17.23
2022-12-04T10:38:47.036Z,18.70
2022-12-04T10:41:38.112Z,13.07
2022-12-04T10:44:04.858Z,16.97
2022-12-04T10:46:34.659Z,19.13
2022-12-04T10:49:06.688Z,16.27
2022-12-04T10:51:40.566Z,18.57
2022-12-04T10:54:22.366Z,14.93
2022-12-04T10:56:58.542Z,21.80
2022-12-04T10:59:26.160Z,17.33
2022-12-04T11:02:18.268Z,19.73
2022-12-04T11:04:54.188Z,22.70
2022-12-04T11:07:24.578Z,16.17
2022-12-04T11:09:59.872Z,22.10
2022-12-04T11:12:26.449Z,22.07
2022-12-04T11:15:12.398Z,15.80
2022-12-04T11:17:39.391Z,12.20
2022-12-04T11:20:15.333Z,16.90
2022-12-04T11:22:52.345Z,15.80
2022-12-04T11:25:21.049Z,14.70
2022-12-04T11:27:51.693Z,16.60
2022-12-04T11:30:26.390Z,15.90
2022-12-04T11:32:54.346Z,15.10
2022-12-04T11:35:24.663Z,13.57
2022-12-04T11:37:56.564Z,17.40
2022-12-04T11:40:24.912Z,13.90
2022-12-04T11:43:12.383Z,12.63
2022-12-04T11:45:39.396Z,12.83
2022-12-04T11:48:18.256Z,15.43
2022-12-04T11:51:22.224Z,12.90
2022-12-04T11:54:04.230Z,17.73
2022-12-04T11:56:45.616Z,13.40
2022-12-04T11:59:34.425Z,13.70
2022-12-04T12:02:23.104Z,16.60
2022-12-04T12:05:18.956Z,14.40
2022-12-04T12:08:10.439Z,15.50
2022-12-04T12:10:48.600Z,13.40
2022-12-04T12:13:28.205Z,12.50
2022-12-04T12:16:00.828Z,19.33
2022-12-04T12:18:41.176Z,15.17
2022-12-04T12:21:27.450Z,16.10
2022-12-04T12:24:03.455Z,12.47
2022-12-04T12:26:44.800Z,13.87
2022-12-04T12:29:20.974Z,13.60
2022-12-04T12:32:02.057Z,14.87
2022-12-04T12:34:37.454Z,14.77
2022-12-04T12:37:41.662Z,12.13
2022-12-04T12:40:20.570Z,10.00
2022-12-04T12:42:58.169Z,11.73
2022-12-04T12:45:45.604Z,14.43
2022-12-04T12:49:00.514Z,14.27
2022-12-04T12:51:42.079Z,12.73
2022-12-04T12:54:33.152Z,18.30
2022-12-04T12:57:09.149Z,14.07
2022-12-04T12:59:42.273Z,15.87
2022-12-04T13:02:30.176Z,12.27
2022-12-04T13:05:05.305Z,13.00
2022-12-04T13:07:51.044Z,13.17
2022-12-04T13:10:40.342Z,12.87
2022-12-04T13:13:14.352Z,15.40
2022-12-04T13:16:13.038Z,17.20
2022-12-04T13:18:53.804Z,14.37
2022-12-04T13:21:31.252Z,14.23
2022-12-04T13:24:25.323Z,15.10
2022-12-04T13:27:05.397Z,14.60
2022-12-04T13:29:53.047Z,13.00
2022-12-04T13:32:38.130Z,14.00
2022-12-04T13:35:33.107Z,12.73
2022-12-04T13:38:27.333Z,14.30
2022-12-04T13:41:04.377Z,15.23
2022-12-04T13:43:33.591Z,13.90
2022-12-04T13:46:07.407Z,17.33
2022-12-04T13:48:43.103Z,15.23
2022-12-04T13:51:41.653Z,15.37
2022-12-04T13:54:32.912Z,12.97
2022-12-04T13:57:14.375Z,13.30
2022-12-04T13:59:42.171Z,16.50
2022-12-04T14:02:22.619Z,15.50
2022-12-04T14:05:15.373Z,14.60
2022-12-04T14:07:55.468Z,13.60
2022-12-04T14:10:33.220Z,16.17
2022-12-04T14:13:21.682Z,15.67
2022-12-04T14:15:48.580Z,16.77
2022-12-04T14:18:28.592Z,17.30
2022-12-04T14:21:05.366Z,16.50
2022-12-04T14:23:42.673Z,19.20
2022-12-04T14:26:37.254Z,18.03
2022-12-04T14:29:40.193Z,15.87
2022-12-04T14:32:18.799Z,17.73
2022-12-04T14:34:47.921Z,15.07
2022-12-04T14:37:27.991Z,19.37
2022-12-04T14:39:56.471Z,19.17
2022-12-04T14:42:50.045Z,17.80
2022-12-04T14:45:35.213Z,14.57
2022-12-04T14:48:22.801Z,16.47
2022-12-04T14:51:04.928Z,17.00
2022-12-04T14:53:57.331Z,17.87
2022-12-04T14:56:48.661Z,18.97
2022-12-04T14:59:18.786Z,18.00
2022-12-04T15:01:48.247Z,19.17
2022-12-04T15:04:28.985Z,19.43
2022-12-04T15:07:00.378Z,21.70
2022-12-04T15:09:47.087Z,25.97
2022-12-04T15:12:36.322Z,21.57
2022-12-04T15:15:14.444Z,20.13
2022-12-04T15:17:41.309Z,23.67
2022-12-04T15:20:10.782Z,25.80
2022-12-04T15:22:37.561Z,24.20
2022-12-04T15:25:06.068Z,22.03
2022-12-04T15:27:33.292Z,23.73
2022-12-04T15:30:02.350Z,25.97
2022-12-04T15:32:30.563Z,21.43
2022-12-04T15:35:06.555Z,22.13
2022-12-04T15:37:34.155Z,20.07
2022-12-04T15:40:06.048Z,23.37
2022-12-04T15:42:32.684Z,20.83
2022-12-04T15:45:03.651Z,25.20
2022-12-04T15:47:38.564Z,22.70
2022-12-04T15:50:27.130Z,23.37
2022-12-04T15:53:02.573Z,20.67
2022-12-04T15:55:47.140Z,22.90
2022-12-04T15:58:39.441Z,24.03
2022-12-04T16:01:09.643Z,19.90
2022-12-04T16:03:42.415Z,19.30
2022-12-04T16:06:15.508Z,22.30
2022-12-04T16:08:44.940Z,29.20
2022-12-04T16:11:20.815Z,21.50
2022-12-04T16:13:50.246Z,22.87
2022-12-04T16:16:20.984Z,28.27
2022-12-04T16:18:47.746Z,22.57
2022-12-04T16:21:18.081Z,20.67
2022-12-04T16:23:45.175Z,19.23
2022-12-04T16:26:14.226Z,17.67
2022-12-04T16:28:40.777Z,20.47
2022-12-04T16:31:10.659Z,25.67
2022-12-04T16:33:37.734Z,19.00
2022-12-04T16:36:04.963Z,18.90
2022-12-04T16:38:31.689Z,17.47
2022-12-04T16:40:58.298Z,20.03
2022-12-04T16:43:25.062Z,23.77
2022-12-04T16:45:53.499Z,15.37
2022-12-04T16:48:20.691Z,22.97
2022-12-04T16:50:47.460Z,21.30
2022-12-04T16:53:22.208Z,17.50
2022-12-04T16:55:50.782Z,19.10
2022-12-04T16:58:18.924Z,17.63
2022-12-04T17:00:53.350Z,18.40
2022-12-04T17:03:31.324Z,18.63
2022-12-04T17:06:00.233Z,17.43
2022-12-04T17:08:27.903Z,17.47
2022-12-04T17:10:54.691Z,18.37
2022-12-04T17:13:21.842Z,22.10
2022-12-04T17:15:48.859Z,20.57
2022-12-04T17:18:20.848Z,25.83
2022-12-04T17:20:48.217Z,17.20
2022-12-04T17:23:14.890Z,19.50
2022-12-04T17:25:41.854Z,24.53
2022-12-04T17:28:08.670Z,15.50
2022-12-04T17:30:36.477Z,16.97
2022-12-04T17:33:04.329Z,20.63
2022-12-04T17:35:31.179Z,18.53
2022-12-04T17:38:02.255Z,18.57
2022-12-04T17:40:32.298Z,17.33
2022-12-04T17:42:59.278Z,14.90
2022-12-04T17:45:26.025Z,17.87
2022-12-04T17:47:52.837Z,15.60
2022-12-04T17:50:19.688Z,18.00
2022-12-04T17:52:49.146Z,15.47
2022-12-04T17:55:15.851Z,18.43
2022-12-04T17:57:42.389Z,20.43
2022-12-04T18:00:09.468Z,17.60
2022-12-04T18:02:38.977Z,18.50
2022-12-04T18:05:05.752Z,20.37
2022-12-04T18:07:32.487Z,15.73
2022-12-04T18:09:59.552Z,21.13
2022-12-04T18:12:26.638Z,18.47
2022-12-04T18:14:53.362Z,15.50
2022-12-04T18:17:20.927Z,17.80
2022-12-04T18:19:47.631Z,16.40
2022-12-04T18:22:14.206Z,17.17
2022-12-04T18:24:40.940Z,23.43
2022-12-04T18:27:08.264Z,16.70
2022-12-04T18:29:35.251Z,19.47
2022-12-04T18:32:02.118Z,17.73
2022-12-04T18:34:28.891Z,18.37
2022-12-04T18:36:55.542Z,18.27
2022-12-04T18:39:24.628Z,15.93
2022-12-04T18:41:54.839Z,14.00
2022-12-04T18:44:21.510Z,17.17
2022-12-04T18:46:48.100Z,16.60
2022-12-04T18:49:14.668Z,18.70
2022-12-04T18:51:48.940Z,16.40
2022-12-04T18:54:21.051Z,22.73
2022-12-04T18:56:47.801Z,17.17
2022-12-04T18:59:20.478Z,16.60
2022-12-04T19:01:50.174Z,17.93
2022-12-04T19:04:19.407Z,16.97
2022-12-04T19:06:53.027Z,17.40
2022-12-04T19:09:40.950Z,26.67
2022-12-04T19:12:10.528Z,19.10
2022-12-04T19:14:38.613Z,16.57
2022-12-04T19:17:05.583Z,17.33
2022-12-04T19:19:32.312Z,22.30
2022-12-04T19:21:59.146Z,23.20
2022-12-04T19:24:25.815Z,24.13
2022-12-04T19:26:54.216Z,24.57
2022-12-04T19:29:20.882Z,24.17
2022-12-04T19:31:47.719Z,18.50
2022-12-04T19:34:14.399Z,20.67
2022-12-04T19:36:41.768Z,15.60
2022-12-04T19:39:08.464Z,12.93
2022-12-04T19:41:37.094Z,14.40
2022-12-04T19:44:25.988Z,16.03
2022-12-04T19:46:51.061Z,17.27
2022-12-04T19:49:17.776Z,15.37
2022-12-04T19:51:44.499Z,17.43
2022-12-04T19:54:12.965Z,15.53
2022-12-04T19:56:39.648Z,14.30
2022-12-04T19:59:07.816Z,21.60
2022-12-04T20:01:35.588Z,17.60
2022-12-04T20:04:06.625Z,20.37
2022-12-04T20:06:39.624Z,21.97
2022-12-04T20:09:16.188Z,14.23
2022-12-04T20:11:42.842Z,13.73
2022-12-04T20:14:10.078Z,11.00
2022-12-04T20:16:37.968Z,16.00
2022-12-04T20:19:06.444Z,15.33
2022-12-04T20:21:33.495Z,16.63
2022-12-04T20:24:06.104Z,17.80
2022-12-04T20:26:37.340Z,17.73
2022-12-04T20:29:06.139Z,17.45
2022-12-04T20:31:38.490Z,16.97
2022-12-04T20:34:07.930Z,21.37
2022-12-04T20:36:41.952Z,15.80
2022-12-04T20:39:10.732Z,15.57
2022-12-04T20:41:38.126Z,14.33
2022-12-04T20:44:06.677Z,11.00
2022-12-04T20:46:36.248Z,10.53
2022-12-04T20:49:06.273Z,11.73
2022-12-04T20:51:38.493Z,11.87
2022-12-04T20:54:06.148Z,10.03
2022-12-04T20:56:35.765Z,11.93
2022-12-04T20:59:07.822Z,10.37
2022-12-04T21:01:35.358Z,10.33
2022-12-04T21:04:03.193Z,10.90
2022-12-04T21:06:39.081Z,11.50
2022-12-04T21:09:08.658Z,11.10
2022-12-04T21:11:38.019Z,11.50
2022-12-04T21:14:26.244Z,11.03
2022-12-04T21:16:52.785Z,10.80
2022-12-04T21:19:21.931Z,10.43
2022-12-04T21:21:49.600Z,10.97
2022-12-04T21:24:21.133Z,12.80
2022-12-04T21:26:48.082Z,9.47
2022-12-04T21:29:15.610Z,9.57
2022-12-04T21:31:42.664Z,10.47
2022-12-04T21:34:12.310Z,10.00
2022-12-04T21:36:39.013Z,8.80
2022-12-04T21:39:06.339Z,11.27
2022-12-04T21:41:51.891Z,11.37
2022-12-04T21:44:20.659Z,14.87
2022-12-04T21:46:47.881Z,12.10
2022-12-04T21:49:15.364Z,9.37
2022-12-04T21:51:58.873Z,11.40
2022-12-04T21:54:27.555Z,9.50
2022-12-04T21:56:54.786Z,11.77
2022-12-04T21:59:21.418Z,12.23
2022-12-04T22:01:47.983Z,10.70
2022-12-04T22:04:14.819Z,13.37
2022-12-04T22:06:41.837Z,11.50
2022-12-04T22:09:09.928Z,12.90
2022-12-04T22:11:37.046Z,13.13
2022-12-04T22:14:04.161Z,10.93
2022-12-04T22:16:32.180Z,11.53
2022-12-04T22:19:00.661Z,11.87
2022-12-04T22:21:28.428Z,11.93
2022-12-04T22:23:57.201Z,11.67
2022-12-04T22:26:24.352Z,16.50
2022-12-04T22:28:51.156Z,11.50
2022-12-04T22:31:21.286Z,11.93
2022-12-04T22:33:49.918Z,11.20
2022-12-04T22:36:19.382Z,12.70
2022-12-04T22:39:08.355Z,14.47
2022-12-04T22:41:33.259Z,16.67
2022-12-04T22:43:59.766Z,19.10
2022-12-04T22:46:26.411Z,18.70
2022-12-04T22:48:53.038Z,15.30
2022-12-04T22:51:21.947Z,15.20
2022-12-04T22:53:53.589Z,12.07
2022-12-04T22:56:26.234Z,9.87
2022-12-04T22:58:54.130Z,12.80
2022-12-04T23:01:23.342Z,9.03
2022-12-04T23:03:50.874Z,8.70
2022-12-04T23:06:19.445Z,13.80
2022-12-04T23:08:46.584Z,17.93
2022-12-04T23:11:16.371Z,17.90
2022-12-04T23:13:43.448Z,18.23
2022-12-04T23:16:12.394Z,17.57
2022-12-04T23:18:42.193Z,15.50
2022-12-04T23:21:11.250Z,10.67
2022-12-04T23:23:40.086Z,11.90
2022-12-04T23:26:09.443Z,10.93
2022-12-04T23:28:36.374Z,11.57
2022-12-04T23:31:03.792Z,12.00
2022-12-04T23:33:31.306Z,12.77
2022-12-04T23:36:00.100Z,12.57
2022-12-04T23:38:28.553Z,12.50
2022-12-04T23:41:13.124Z,11.70
2022-12-04T23:43:40.160Z,10.63
2022-12-04T23:46:11.355Z,10.13
2022-12-04T23:48:40.101Z,12.07
2022-12-04T23:51:08.002Z,16.77
2022-12-04T23:53:39.674Z,11.63
2022-12-04T23:56:07.977Z,11.70
2022-12-04T23:58:35.550Z,14.67
